Time;durP1;ratioP1;P1;durP2;ratioP2;P2;SDS_P1;SDS_P2;PMS_P1;PMS_P2;Temp;Humidity;BMP_temperature;BMP_pressure;BME280_temperature;BME280_humidity;BME280_pressure;Samples;Min_cycle;Max_cycle;Signal;HPM_P1;HPM_P2
2022/07/01 00:00:17;;;;;;;;;;;;;;;-144.99;90.24;52146.44;4973745;28;20009;-64
2022/07/01 00:02:44;;;;;;;;;;;;;;;-144.99;90.06;52158.66;4952415;28;19931;-63
2022/07/01 00:05:11;;;;;;;;;;;;;;;-144.99;87.83;52095.50;4960817;28;19930;-62
2022/07/01 00:07:37;;;;;;;;;;;;;;;-144.99;87.81;52177.00;4976070;28;19996;-63
2022/07/01 00:10:04;;;;;;;;;;;;;;;-144.99;88.17;52170.91;4952127;28;19977;-61
2022/07/01 00:12:32;;;;;;;;;;;;;;;-144.99;89.67;52150.53;4969928;28;19929;-62
2022/07/01 00:14:58;;;;;;;;;;;;;;;-144.99;92.73;52162.75;4973283;28;20329;-62
2022/07/01 00:17:25;;;;;;;;;;;;;;;-144.99;93.89;52164.78;4956358;28;19927;-63
2022/07/01 00:19:51;;;;;;;;;;;;;;;-144.99;94.52;52162.75;4966911;28;20027;-62
2022/07/01 00:22:18;;;;;;;;;;;;;;;-144.99;94.36;52183.13;4974946;28;20009;-62
2022/07/01 00:24:45;;;;;;;;;;;;;;;-144.99;94.59;52170.91;4978302;28;19971;-61
2022/07/01 00:27:12;;;;;;;;;;;;;;;-144.99;94.79;52170.91;4959824;28;19933;-59
2022/07/01 00:29:40;;;;;;;;;;;;;;;-144.99;95.71;52146.44;4977210;28;20409;-58
2022/07/01 00:32:07;;;;;;;;;;;;;;;-144.99;97.43;52174.97;4962362;28;20112;-59
2022/07/01 00:34:33;;;;;;;;;;;;;;;-144.99;100.00;52166.81;4959184;28;19926;-58
2022/07/01 00:37:00;;;;;;;;;;;;;;;-144.99;100.00;52162.75;4991590;28;20331;-59
2022/07/01 00:39:26;;;;;;;;;;;;;;;-144.99;100.00;52162.75;4961181;28;19935;-59
2022/07/01 00:41:53;;;;;;;;;;;;;;;-144.99;100.00;52174.97;4952157;28;20017;-59
2022/07/01 00:44:19;;;;;;;;;;;;;;;-144.99;100.00;52158.66;4996826;28;20361;-59
2022/07/01 00:46:50;;;;;;;;;;;;;;;-144.99;100.00;52172.94;4970321;28;19930;-61
2022/07/01 00:49:17;;;;;;;;;;;;;;;-144.99;100.00;52174.97;4966711;28;19937;-59
2022/07/01 00:51:44;;;;;;;;;;;;;;;-144.99;100.00;52134.22;4963641;28;19977;-58
2022/07/01 00:54:10;;;;;;;;;;;;;;;-144.99;100.00;52126.06;4953196;28;19958;-60
2022/07/01 00:56:37;;;;;;;;;;;;;;;-144.99;100.00;52168.84;4964001;28;19969;-59
2022/07/01 00:59:03;;;;;;;;;;;;;;;-144.99;100.00;52152.56;4951817;28;20530;-59
2022/07/01 01:01:30;;;;;;;;;;;;;;;-144.99;100.00;52170.91;4958806;28;20013;-59
2022/07/01 01:03:58;;;;;;;;;;;;;;;-144.99;100.00;52191.28;4949908;28;19931;-59
2022/07/01 01:06:24;;;;;;;;;;;;;;;-144.99;100.00;52183.13;4962857;28;20127;-63
2022/07/01 01:08:51;;;;;;;;;;;;;;;-144.99;100.00;52203.50;4965648;28;19988;-62
2022/07/01 01:11:18;;;;;;;;;;;;;;;-144.99;100.00;52166.81;4975974;28;19926;-62
2022/07/01 01:13:44;;;;;;;;;;;;;;;-144.99;100.00;52170.91;4956866;28;19934;-61
2022/07/01 01:16:16;;;;;;;;;;;;;;;-144.99;100.00;52134.22;4992039;28;20377;-62
2022/07/01 01:18:42;;;;;;;;;;;;;;;-144.99;100.00;52138.28;4950663;28;19935;-60
2022/07/01 01:21:10;;;;;;;;;;;;;;;-144.99;100.00;52191.28;4956636;28;19926;-61
2022/07/01 01:23:37;;;;;;;;;;;;;;;-144.99;100.00;52195.34;4956401;28;20037;-61
2022/07/01 01:26:03;;;;;;;;;;;;;;;-144.99;100.00;52166.81;4980428;28;19965;-60
2022/07/01 01:28:30;;;;;;;;;;;;;;;-144.99;100.00;52146.44;4957650;28;19975;-61
2022/07/01 01:30:56;;;;;;;;;;;;;;;-144.99;100.00;52142.38;5010152;28;20040;-59
2022/07/01 01:33:23;;;;;;;;;;;;;;;-144.99;100.00;52174.97;4957524;28;19926;-60
2022/07/01 01:35:49;;;;;;;;;;;;;;;-144.99;100.00;52181.09;4959337;28;20410;-63
2022/07/01 01:38:17;;;;;;;;;;;;;;;-144.99;100.00;52195.34;4970580;28;20029;-61
2022/07/01 01:40:44;;;;;;;;;;;;;;;-144.99;100.00;52191.28;4955570;28;19986;-63
2022/07/01 01:43:10;;;;;;;;;;;;;;;-144.99;100.00;52146.44;4965302;28;19926;-60
2022/07/01 01:45:37;;;;;;;;;;;;;;;-144.99;100.00;52183.13;4991377;28;19931;-61
2022/07/01 01:48:03;;;;;;;;;;;;;;;-144.99;100.00;52158.66;4949779;28;19926;-60
2022/07/01 01:50:30;;;;;;;;;;;;;;;-144.99;100.00;52189.25;4978370;28;19931;-60
2022/07/01 01:52:57;;;;;;;;;;;;;;;-144.99;100.00;52199.44;4970708;28;20044;-61
2022/07/01 01:55:24;;;;;;;;;;;;;;;-144.99;100.00;52199.44;4969977;28;19925;-61
2022/07/01 01:57:51;;;;;;;;;;;;;;;-144.99;100.00;52187.19;4956960;28;19969;-60
2022/07/01 02:00:18;;;;;;;;;;;;;;;-144.99;100.00;52158.66;4972062;28;19992;-59
2022/07/01 02:02:44;;;;;;;;;;;;;;;-144.99;100.00;52203.50;4979289;28;20014;-59
2022/07/01 02:05:12;;;;;;;;;;;;;;;-144.99;100.00;52207.59;4964356;28;19926;-59
2022/07/01 02:07:39;;;;;;;;;;;;;;;-144.99;100.00;52134.22;4975357;28;20059;-60
2022/07/01 02:10:06;;;;;;;;;;;;;;;-144.99;100.00;52170.91;4957097;28;19977;-61
2022/07/01 02:12:34;;;;;;;;;;;;;;;-144.99;100.00;52181.09;4971024;28;19926;-63
2022/07/01 02:15:00;;;;;;;;;;;;;;;-144.99;100.00;52170.91;4954125;28;19973;-60
2022/07/01 02:17:27;;;;;;;;;;;;;;;-144.99;100.00;52223.88;4945451;28;19994;-61
2022/07/01 02:19:53;;;;;;;;;;;;;;;-144.99;100.00;52195.34;4956610;28;20053;-58
2022/07/01 02:22:20;;;;;;;;;;;;;;;-144.99;100.00;52195.34;4950645;28;19977;-57
2022/07/01 02:24:46;;;;;;;;;;;;;;;-144.99;100.00;52179.06;4958252;28;19926;-58
2022/07/01 02:27:13;;;;;;;;;;;;;;;-144.99;100.00;52199.44;4961162;28;19956;-60
2022/07/01 02:29:41;;;;;;;;;;;;;;;-144.99;100.00;52195.34;4954415;28;19937;-59
2022/07/01 02:32:08;;;;;;;;;;;;;;;-144.99;100.00;52191.28;4965527;28;19934;-58
2022/07/01 02:34:34;;;;;;;;;;;;;;;-144.99;100.00;52187.19;4961343;28;19926;-59
2022/07/01 02:37:01;;;;;;;;;;;;;;;-144.99;100.00;52207.59;4956086;28;20311;-61
2022/07/01 02:39:28;;;;;;;;;;;;;;;-144.99;100.00;52170.91;4952062;28;19933;-59
2022/07/01 02:44:38;;;;;;;;;;;;;;;-144.99;100.00;52203.50;4961508;28;19936;-57
2022/07/01 02:47:06;;;;;;;;;;;;;;;-144.99;100.00;52203.50;4996497;28;20045;-58
2022/07/01 02:49:33;;;;;;;;;;;;;;;-144.99;100.00;52187.19;4970138;28;19926;-59
2022/07/01 02:51:59;;;;;;;;;;;;;;;-144.99;100.00;52177.00;4956776;28;20047;-59
2022/07/01 02:54:26;;;;;;;;;;;;;;;-144.99;100.00;52174.97;4959408;28;20405;-58
2022/07/01 02:56:52;;;;;;;;;;;;;;;-144.99;100.00;52211.66;4964316;28;20066;-62
2022/07/01 02:59:19;;;;;;;;;;;;;;;-144.99;100.00;52172.94;4956151;28;19980;-59
2022/07/01 03:01:45;;;;;;;;;;;;;;;-144.99;100.00;52187.19;4983789;28;19996;-61
2022/07/01 03:04:13;;;;;;;;;;;;;;;-144.99;100.00;52207.59;4966960;28;19961;-60
2022/07/01 03:06:41;;;;;;;;;;;;;;;-144.99;100.00;52215.75;4962917;28;19930;-60
2022/07/01 03:09:07;;;;;;;;;;;;;;;-144.99;100.00;52213.69;4958116;28;20026;-62
2022/07/01 03:11:34;;;;;;;;;;;;;;;-144.99;100.00;52195.34;4956506;28;20400;-61
2022/07/01 03:14:00;;;;;;;;;;;;;;;-144.99;100.00;52170.91;4949960;28;19973;-60
2022/07/01 03:16:27;;;;;;;;;;;;;;;-144.99;100.00;52197.41;4966838;28;19926;-61
2022/07/01 03:18:53;;;;;;;;;;;;;;;-144.99;100.00;52211.66;4945958;28;20061;-62
2022/07/01 03:21:21;;;;;;;;;;;;;;;-144.99;100.00;52227.97;4955056;28;20277;-60
2022/07/01 03:23:47;;;;;;;;;;;;;;;-144.99;100.00;52195.34;4988396;28;20343;-60
2022/07/01 03:26:15;;;;;;;;;;;;;;;-144.99;100.00;52199.44;4971021;28;19961;-61
2022/07/01 03:28:41;;;;;;;;;;;;;;;-144.99;100.00;52225.94;4958811;28;19926;-62
2022/07/01 03:31:08;;;;;;;;;;;;;;;-144.99;100.00;52193.31;4987858;28;19931;-60
2022/07/01 03:33:34;;;;;;;;;;;;;;;-144.99;100.00;52219.81;4959825;28;19961;-62
2022/07/01 03:36:01;;;;;;;;;;;;;;;-144.99;100.00;52199.44;4964568;28;19933;-62
2022/07/01 03:38:29;;;;;;;;;;;;;;;-144.99;100.00;52189.25;4961302;28;19934;-60
2022/07/01 03:40:55;;;;;;;;;;;;;;;-144.99;100.00;52223.88;4947387;28;19971;-60
2022/07/01 03:43:22;;;;;;;;;;;;;;;-144.99;100.00;52236.13;4954658;28;19974;-61
2022/07/01 03:45:48;;;;;;;;;;;;;;;-144.99;100.00;52207.59;4982510;28;19968;-59
2022/07/01 03:48:16;;;;;;;;;;;;;;;-144.99;100.00;52217.78;4959096;28;19930;-58
2022/07/01 03:50:42;;;;;;;;;;;;;;;-144.99;100.00;52181.09;4995616;28;19930;-58
2022/07/01 03:55:54;;;;;;;;;;;;;;;-144.99;100.00;52248.34;4964687;28;19934;-61
2022/07/01 03:58:20;;;;;;;;;;;;;;;-144.99;100.00;52207.59;4991209;28;20353;-62
2022/07/01 04:00:47;;;;;;;;;;;;;;;-144.99;100.00;52207.59;4959617;28;19930;-63
2022/07/01 04:03:13;;;;;;;;;;;;;;;-144.99;100.00;52223.88;4961268;28;19980;-63
2022/07/01 04:05:40;;;;;;;;;;;;;;;-144.99;100.00;52221.84;4953682;28;19931;-62
2022/07/01 04:08:08;;;;;;;;;;;;;;;-144.99;100.00;52227.97;4957179;28;20326;-63
2022/07/01 04:10:35;;;;;;;;;;;;;;;-144.99;100.00;52215.75;4983841;28;20428;-61
2022/07/01 04:13:04;;;;;;;;;;;;;;;-144.99;100.00;52219.81;4961430;28;19926;-62
2022/07/01 04:15:30;;;;;;;;;;;;;;;-144.99;100.00;52205.53;4948832;28;20020;-60
2022/07/01 04:17:57;;;;;;;;;;;;;;;-144.99;100.00;52244.28;4961769;28;19934;-59
2022/07/01 04:20:23;;;;;;;;;;;;;;;-144.99;100.00;52205.53;4983113;22;20371;-60
2022/07/01 04:22:49;;;;;;;;;;;;;;;-144.99;100.00;52244.28;4964694;28;19962;-59
2022/07/01 04:25:15;;;;;;;;;;;;;;;-144.99;100.00;52179.06;4981868;28;20416;-59
2022/07/01 04:27:42;;;;;;;;;;;;;;;-144.99;100.00;52203.50;4968375;28;19926;-59
2022/07/01 04:30:10;;;;;;;;;;;;;;;-144.99;100.00;52227.97;4958094;28;19931;-59
2022/07/01 04:32:37;;;;;;;;;;;;;;;-144.99;100.00;52203.50;4983115;28;20339;-59
2022/07/01 04:35:04;;;;;;;;;;;;;;;-144.99;100.00;52244.28;4956611;28;19930;-60
2022/07/01 04:37:31;;;;;;;;;;;;;;;-144.99;100.00;52227.97;4974165;28;20033;-60
2022/07/01 04:39:58;;;;;;;;;;;;;;;-144.99;100.00;52232.03;4957259;28;19973;-60
2022/07/01 04:42:23;;;;;;;;;;;;;;;-144.99;100.00;52223.88;4972967;28;20037;-60
2022/07/01 04:44:50;;;;;;;;;;;;;;;-144.99;100.00;52215.75;4956796;28;20025;-61
2022/07/01 04:47:18;;;;;;;;;;;;;;;-144.99;100.00;52256.50;4980271;28;19987;-60
2022/07/01 04:49:44;;;;;;;;;;;;;;;-144.99;100.00;52223.88;4958892;28;20207;-69
2022/07/01 04:52:11;;;;;;;;;;;;;;;-144.99;100.00;52248.34;4963298;28;20409;-66
2022/07/01 04:54:37;;;;;;;;;;;;;;;-144.99;100.00;52236.13;4955606;28;19987;-66
2022/07/01 04:57:04;;;;;;;;;;;;;;;-144.99;100.00;52219.81;4960048;28;19926;-66
2022/07/01 04:59:30;;;;;;;;;;;;;;;-144.99;100.00;52195.34;4968030;28;19959;-67
2022/07/01 05:01:58;;;;;;;;;;;;;;;-144.99;100.00;52236.13;4975075;28;20008;-66
2022/07/01 05:04:27;;;;;;;;;;;;;;;-144.99;100.00;52270.78;4273328;28;10000811;-67
2022/07/01 05:06:54;;;;;;;;;;;;;;;-144.99;100.00;52223.88;4947857;28;19936;-66
2022/07/01 05:09:21;;;;;;;;;;;;;;;-144.99;100.00;52225.94;4976478;28;19937;-66
2022/07/01 05:11:47;;;;;;;;;;;;;;;-144.99;100.00;52244.28;4988327;28;20283;-66
2022/07/01 05:14:14;;;;;;;;;;;;;;;-144.99;100.00;52209.63;4952492;28;20383;-66
2022/07/01 05:16:40;;;;;;;;;;;;;;;-144.99;100.00;52219.81;4959589;28;19937;-66
2022/07/01 05:21:58;;;;;;;;;;;;;;;-144.99;100.00;52297.25;4948133;28;20045;-66
2022/07/01 05:24:27;;;;;;;;;;;;;;;-144.99;100.00;52256.50;4975829;28;19961;-67
2022/07/01 05:26:53;;;;;;;;;;;;;;;-144.99;100.00;52256.50;4954127;28;19931;-66
2022/07/01 05:29:20;;;;;;;;;;;;;;;-144.99;100.00;52240.19;4975078;28;19981;-67
2022/07/01 05:31:46;;;;;;;;;;;;;;;-144.99;100.00;52252.44;4969749;28;20197;-68
2022/07/01 05:34:13;;;;;;;;;;;;;;;-144.99;100.00;52252.44;4957259;28;19930;-67
2022/07/01 05:36:39;;;;;;;;;;;;;;;-144.99;100.00;52242.22;4984322;28;19933;-67
2022/07/01 05:39:08;;;;;;;;;;;;;;;-144.99;100.00;52244.28;4962045;28;20038;-67
2022/07/01 05:41:34;;;;;;;;;;;;;;;-144.99;100.00;52238.16;4980673;28;19934;-67
2022/07/01 05:44:01;;;;;;;;;;;;;;;-144.99;100.00;52248.34;4963261;28;19945;-67
2022/07/01 05:46:27;;;;;;;;;;;;;;;-144.99;100.00;52256.50;4943885;28;19934;-67
2022/07/01 05:48:54;;;;;;;;;;;;;;;-144.99;100.00;52252.44;4967653;28;20360;-67
2022/07/01 05:51:20;;;;;;;;;;;;;;;-144.99;100.00;52248.34;4995678;28;19930;-67
2022/07/01 05:53:48;;;;;;;;;;;;;;;-144.99;100.00;52246.31;4952870;28;19983;-67
2022/07/01 05:56:16;;;;;;;;;;;;;;;-144.99;100.00;52230.00;4947459;28;20018;-67
2022/07/01 05:58:42;;;;;;;;;;;;;;;-144.99;100.00;52215.75;4956378;28;19935;-68
2022/07/01 06:01:09;;;;;;;;;;;;;;;-144.99;100.00;52244.28;4989741;28;19989;-67
2022/07/01 06:03:35;;;;;;;;;;;;;;;-144.99;100.00;52258.53;4964067;28;20366;-67
2022/07/01 06:06:02;;;;;;;;;;;;;;;-144.99;100.00;52248.34;4959864;28;20424;-67
2022/07/01 06:08:28;;;;;;;;;;;;;;;-144.99;100.00;52252.44;4970929;28;19996;-67
2022/07/01 06:10:55;;;;;;;;;;;;;;;-144.99;100.00;52264.66;4943043;28;19927;-66
2022/07/01 06:13:23;;;;;;;;;;;;;;;-144.99;100.00;52264.66;4969293;28;20318;-67
2022/07/01 06:15:49;;;;;;;;;;;;;;;-144.99;100.00;52244.28;4980160;28;19930;-66
2022/07/01 06:18:16;;;;;;;;;;;;;;;-144.99;100.00;52260.56;4960621;28;19977;-66
2022/07/01 06:20:42;;;;;;;;;;;;;;;-144.99;100.00;52246.31;4957633;28;19995;-66
2022/07/01 06:23:09;;;;;;;;;;;;;;;-144.99;100.00;52213.69;4957170;28;19984;-67
2022/07/01 06:25:35;;;;;;;;;;;;;;;-144.99;100.00;52276.88;4978412;28;19944;-67
2022/07/01 06:28:02;;;;;;;;;;;;;;;-144.99;100.00;52219.81;4960733;28;20034;-67
2022/07/01 06:30:30;;;;;;;;;;;;;;;-144.99;100.00;52272.81;4962816;28;20668;-66
2022/07/01 06:32:56;;;;;;;;;;;;;;;-144.99;100.00;52260.56;4952362;28;19930;-66
2022/07/01 06:35:23;;;;;;;;;;;;;;;-144.99;100.00;52256.50;4983216;28;19979;-66
2022/07/01 06:37:49;;;;;;;;;;;;;;;-144.99;100.00;52227.97;4628196;28;9999872;-67
2022/07/01 06:40:16;;;;;;;;;;;;;;;-144.99;100.00;52244.28;4959305;28;19934;-67
2022/07/01 06:42:42;;;;;;;;;;;;;;;-144.99;100.00;52244.28;4966479;28;20298;-67
2022/07/01 06:45:09;;;;;;;;;;;;;;;-144.99;100.00;52223.88;4955265;28;20044;-67
2022/07/01 06:47:37;;;;;;;;;;;;;;;-144.99;100.00;52289.13;4974620;28;20356;-68
2022/07/01 06:50:04;;;;;;;;;;;;;;;-144.99;100.00;52268.72;4978499;28;19930;-66
2022/07/01 06:52:31;;;;;;;;;;;;;;;-144.99;100.00;52236.13;4958755;28;19926;-66
2022/07/01 06:54:58;;;;;;;;;;;;;;;-144.99;100.00;52244.28;4962638;28;20034;-66
2022/07/01 06:57:24;;;;;;;;;;;;;;;-144.99;100.00;52248.34;4969253;28;19952;-66
2022/07/01 06:59:51;;;;;;;;;;;;;;;-144.99;100.00;52232.03;4966074;28;19929;-68
2022/07/01 07:02:17;;;;;;;;;;;;;;;-144.99;100.00;52217.78;4966689;28;19984;-67
2022/07/01 07:04:46;;;;;;;;;;;;;;;-144.99;100.00;52256.50;4975906;28;20184;-66
2022/07/01 07:07:12;;;;;;;;;;;;;;;-144.99;100.00;52236.13;4961993;28;20409;-67
2022/07/01 07:09:38;;;;;;;;;;;;;;;-144.99;100.00;52252.44;4971911;28;19930;-66
2022/07/01 07:12:05;;;;;;;;;;;;;;;-144.99;100.00;52219.81;4974926;28;19980;-67
2022/07/01 07:14:32;;;;;;;;;;;;;;;-144.99;100.00;52227.97;4967193;28;19946;-67
2022/07/01 07:16:58;;;;;;;;;;;;;;;-144.99;100.00;52219.81;5012634;28;20046;-68
2022/07/01 07:19:25;;;;;;;;;;;;;;;-144.99;100.00;52244.28;4964237;28;20309;-68
2022/07/01 07:21:53;;;;;;;;;;;;;;;-144.99;100.00;52244.28;4967812;28;20395;-67
2022/07/01 07:24:19;;;;;;;;;;;;;;;-144.99;100.00;52240.19;4993789;28;20205;-69
2022/07/01 07:26:47;;;;;;;;;;;;;;;-144.99;100.00;52248.34;4965737;28;19996;-67
2022/07/01 07:29:14;;;;;;;;;;;;;;;-144.99;100.00;52287.06;4976090;28;19930;-67
2022/07/01 07:31:40;;;;;;;;;;;;;;;-144.99;100.00;52248.34;4980461;28;19960;-67
2022/07/01 07:34:07;;;;;;;;;;;;;;;-144.99;100.00;52289.13;4970454;28;19926;-67
2022/07/01 07:36:33;;;;;;;;;;;;;;;-144.99;100.00;52244.28;4994330;28;20024;-67
2022/07/01 07:39:01;;;;;;;;;;;;;;;-144.99;100.00;52244.28;4960384;28;19990;-67
2022/07/01 07:41:28;;;;;;;;;;;;;;;-144.99;100.00;52240.19;4954707;28;19930;-66
2022/07/01 07:43:54;;;;;;;;;;;;;;;-144.99;100.00;52242.22;4968519;28;19930;-67
2022/07/01 07:46:21;;;;;;;;;;;;;;;-144.99;100.00;52260.56;4976675;28;19934;-67
2022/07/01 07:48:47;;;;;;;;;;;;;;;-144.99;100.00;52276.88;4975979;28;20081;-68
2022/07/01 07:51:17;;;;;;;;;;;;;;;-144.99;100.00;52268.72;4959474;28;19973;-68
2022/07/01 07:53:43;;;;;;;;;;;;;;;-144.99;100.00;52223.88;4955938;28;19934;-68
2022/07/01 07:56:11;;;;;;;;;;;;;;;-144.99;100.00;52262.63;4962245;28;19934;-67
2022/07/01 07:58:41;;;;;;;;;;;;;;;-144.99;100.00;52252.44;4958794;28;19938;-66
2022/07/01 08:01:08;;;;;;;;;;;;;;;-144.99;100.00;52268.72;4958215;28;20348;-67
2022/07/01 08:03:34;;;;;;;;;;;;;;;-144.99;100.00;52289.13;4969081;28;20409;-68
2022/07/01 08:06:01;;;;;;;;;;;;;;;-144.99;100.00;52244.28;4964003;28;19932;-68
2022/07/01 08:08:28;;;;;;;;;;;;;;;-144.99;100.00;52276.88;4967932;28;19934;-67
2022/07/01 08:10:54;;;;;;;;;;;;;;;-144.99;100.00;52272.81;4958199;28;20382;-67
2022/07/01 08:13:22;;;;;;;;;;;;;;;-144.99;100.00;52289.13;4965744;28;19934;-67
2022/07/01 08:15:49;;;;;;;;;;;;;;;-144.99;100.00;52236.13;4956208;28;20017;-67
2022/07/01 08:18:17;;;;;;;;;;;;;;;-144.99;100.00;52240.19;4960036;28;19930;-68
2022/07/01 08:20:43;;;;;;;;;;;;;;;-144.99;100.00;52236.13;4980739;28;19929;-67
2022/07/01 08:23:10;;;;;;;;;;;;;;;-144.99;100.00;52280.97;4954843;28;19957;-67
2022/07/01 08:25:37;;;;;;;;;;;;;;;-144.99;100.00;52240.19;4977073;28;20347;-67
2022/07/01 08:28:04;;;;;;;;;;;;;;;-144.99;100.00;52244.28;4952257;28;20068;-67
2022/07/01 08:30:32;;;;;;;;;;;;;;;-144.99;100.00;52256.50;4957380;28;20429;-67
2022/07/01 08:32:59;;;;;;;;;;;;;;;-144.99;100.00;52264.66;4952904;28;20025;-68
2022/07/01 08:35:26;;;;;;;;;;;;;;;-144.99;100.00;52252.44;5009246;28;19928;-68
2022/07/01 08:37:52;;;;;;;;;;;;;;;-144.99;100.00;52199.44;4965313;28;20039;-67
2022/07/01 08:40:19;;;;;;;;;;;;;;;-144.99;100.00;52256.50;4987922;28;19969;-68
2022/07/01 08:42:46;;;;;;;;;;;;;;;-144.99;100.00;52264.66;4962174;28;19934;-67
2022/07/01 08:45:12;;;;;;;;;;;;;;;-144.99;100.00;52268.72;4967441;28;19984;-69
2022/07/01 08:47:51;;;;;;;;;;;;;;;-144.99;100.00;52252.44;4958745;28;19981;-67
2022/07/01 08:50:18;;;;;;;;;;;;;;;-144.99;100.00;52270.78;5005758;28;20027;-67
2022/07/01 08:52:45;;;;;;;;;;;;;;;-144.99;100.00;52252.44;4962027;28;20366;-68
2022/07/01 08:55:11;;;;;;;;;;;;;;;-144.99;100.00;52244.28;4977488;28;19930;-68
2022/07/01 08:57:38;;;;;;;;;;;;;;;-144.99;100.00;52285.03;4949363;28;19934;-68
2022/07/01 09:00:05;;;;;;;;;;;;;;;-144.99;100.00;52268.72;4957078;28;20629;-67
2022/07/01 09:02:46;;;;;;;;;;;;;;;-144.99;100.00;52252.44;4957715;28;19930;-68
2022/07/01 09:05:14;;;;;;;;;;;;;;;-144.99;100.00;52260.56;4976516;28;20143;-68
2022/07/01 09:07:40;;;;;;;;;;;;;;;-144.99;100.00;52240.19;4986202;28;19952;-67
2022/07/01 09:10:12;;;;;;;;;;;;;;;-144.99;100.00;52234.09;4968558;28;19990;-67
2022/07/01 09:12:39;;;;;;;;;;;;;;;-144.99;100.00;52252.44;4982625;28;20058;-67
2022/07/01 09:15:19;;;;;;;;;;;;;;;-144.99;100.00;52301.34;4968768;28;19930;-67
2022/07/01 09:17:45;;;;;;;;;;;;;;;-144.99;100.00;52285.03;4978327;28;19926;-68
2022/07/01 09:20:23;;;;;;;;;;;;;;;-144.99;100.00;52260.56;4978010;28;19934;-68
2022/07/01 09:22:57;;;;;;;;;;;;;;;-144.99;100.00;52240.19;4983626;28;19946;-66
2022/07/01 09:25:27;;;;;;;;;;;;;;;-144.99;100.00;52260.56;4994294;28;20010;-67
2022/07/01 09:28:03;;;;;;;;;;;;;;;-144.99;100.00;52276.88;4964805;28;19949;-67
2022/07/01 09:30:29;;;;;;;;;;;;;;;-144.99;100.00;52285.03;4984065;28;20067;-69
2022/07/01 09:33:05;;;;;;;;;;;;;;;-144.99;100.00;52270.78;4966218;28;19953;-66
2022/07/01 09:35:33;;;;;;;;;;;;;;;-144.99;100.00;52240.19;4975749;28;20002;-66
2022/07/01 09:37:59;;;;;;;;;;;;;;;-144.99;100.00;52276.88;4968576;28;20018;-67
2022/07/01 09:40:26;;;;;;;;;;;;;;;-144.99;100.00;52280.97;4945737;28;19964;-67
2022/07/01 09:42:52;;;;;;;;;;;;;;;-144.99;100.00;52313.56;4968494;28;19973;-67
2022/07/01 09:45:19;;;;;;;;;;;;;;;-144.99;100.00;52260.56;4958730;28;19931;-67
2022/07/01 09:47:49;;;;;;;;;;;;;;;-144.99;100.00;52232.03;4963813;28;19983;-66
2022/07/01 09:50:15;;;;;;;;;;;;;;;-144.99;100.00;52232.03;5015303;28;19990;-67
2022/07/01 09:52:43;;;;;;;;;;;;;;;-144.99;100.00;52227.97;4961145;28;20388;-67
2022/07/01 09:55:12;;;;;;;;;;;;;;;-144.99;100.00;52246.31;4969065;28;19930;-67
2022/07/01 09:57:40;;;;;;;;;;;;;;;-144.99;100.00;52227.97;4958433;28;20078;-68
2022/07/01 10:00:07;;;;;;;;;;;;;;;-144.99;100.00;52242.22;4962968;28;20426;-68
2022/07/01 10:02:34;;;;;;;;;;;;;;;-144.99;100.00;52232.03;4956994;28;19930;-68
2022/07/01 10:05:02;;;;;;;;;;;;;;;-144.99;100.00;52227.97;4967955;28;20022;-68
2022/07/01 10:07:37;;;;;;;;;;;;;;;-144.99;100.00;52256.50;4960283;28;19988;-68
2022/07/01 10:10:11;;;;;;;;;;;;;;;-144.99;100.00;52211.66;4956071;28;19970;-68
2022/07/01 10:12:40;;;;;;;;;;;;;;;-144.99;100.00;52219.81;4970137;28;20344;-68
2022/07/01 10:15:08;;;;;;;;;;;;;;;-144.99;100.00;52246.31;4954960;28;19927;-68
2022/07/01 10:17:36;;;;;;;;;;;;;;;-144.99;100.00;52293.19;4959574;28;20003;-69
2022/07/01 10:20:07;;;;;;;;;;;;;;;-144.99;100.00;52254.47;4957998;28;20013;-69
2022/07/01 10:22:35;;;;;;;;;;;;;;;-144.99;100.00;52297.25;4981833;28;20032;-68
2022/07/01 10:25:17;;;;;;;;;;;;;;;-144.99;100.00;52303.38;4977723;28;20040;-69
2022/07/01 10:27:45;;;;;;;;;;;;;;;-144.99;100.00;52244.28;4954840;28;19930;-68
2022/07/01 10:30:15;;;;;;;;;;;;;;;-144.99;100.00;52260.56;4611865;28;10000479;-69
2022/07/01 10:32:47;;;;;;;;;;;;;;;-144.99;100.00;52234.09;4956995;28;19929;-69
2022/07/01 10:35:14;;;;;;;;;;;;;;;-144.99;100.00;52256.50;4975020;28;20413;-69
2022/07/01 10:37:57;;;;;;;;;;;;;;;-144.99;100.00;52272.81;4993287;28;19963;-69
2022/07/01 10:40:40;;;;;;;;;;;;;;;-144.99;100.00;52276.88;4994383;28;20185;-69
2022/07/01 10:43:08;;;;;;;;;;;;;;;-144.99;100.00;52268.72;4965958;28;20308;-69
2022/07/01 10:45:41;;;;;;;;;;;;;;;-144.99;100.00;52256.50;4957897;28;19984;-70
2022/07/01 10:48:21;;;;;;;;;;;;;;;-144.99;100.00;52285.03;4960934;28;19934;-69
2022/07/01 10:50:48;;;;;;;;;;;;;;;-144.99;100.00;52272.81;4966696;28;19930;-70
2022/07/01 10:53:15;;;;;;;;;;;;;;;-144.99;100.00;52305.41;4956930;28;20021;-69
2022/07/01 10:55:45;;;;;;;;;;;;;;;-144.99;100.00;52268.72;4964173;28;19927;-68
2022/07/01 10:58:13;;;;;;;;;;;;;;;-144.99;100.00;52278.91;4953573;28;19931;-68
2022/07/01 11:00:41;;;;;;;;;;;;;;;-144.99;100.00;52297.25;4960133;28;19927;-69
2022/07/01 11:03:19;;;;;;;;;;;;;;;-144.99;100.00;52293.19;4964385;28;19998;-69
2022/07/01 11:05:47;;;;;;;;;;;;;;;-144.99;100.00;52240.19;4964108;28;19936;-69
2022/07/01 11:08:13;;;;;;;;;;;;;;;-144.99;100.00;52264.66;4971905;28;20403;-69
2022/07/01 11:10:40;;;;;;;;;;;;;;;-144.99;100.00;52305.41;4958601;28;19930;-69
2022/07/01 11:13:07;;;;;;;;;;;;;;;-144.99;100.00;52301.34;4968361;28;19957;-69
2022/07/01 11:15:35;;;;;;;;;;;;;;;-144.99;100.00;52256.50;4954935;28;20526;-69
2022/07/01 11:18:02;;;;;;;;;;;;;;;-144.99;100.00;52248.34;4958806;28;19984;-70
2022/07/01 11:20:30;;;;;;;;;;;;;;;-144.99;100.00;52272.81;4973136;28;20271;-69
2022/07/01 11:22:57;;;;;;;;;;;;;;;-144.99;100.00;52236.13;4955918;28;20351;-69
2022/07/01 11:25:24;;;;;;;;;;;;;;;-144.99;100.00;52260.56;4978416;28;20052;-69
2022/07/01 11:27:51;;;;;;;;;;;;;;;-144.99;100.00;52285.03;4953680;28;19954;-69
2022/07/01 11:30:20;;;;;;;;;;;;;;;-144.99;100.00;52260.56;4970343;28;19979;-69
2022/07/01 11:32:50;;;;;;;;;;;;;;;-144.99;100.00;52333.94;4955682;28;19930;-69
2022/07/01 11:40:49;;;;;;;;;;;;;;;-144.99;100.00;52285.03;4970828;28;20022;-69
2022/07/01 11:43:19;;;;;;;;;;;;;;;-144.99;100.00;52299.31;4967779;28;19930;-67
2022/07/01 11:45:46;;;;;;;;;;;;;;;-144.99;98.42;52262.63;4987137;28;20002;-69
2022/07/01 11:48:28;;;;;;;;;;;;;;;-144.99;98.41;52285.03;4953735;28;19932;-69
2022/07/01 11:50:54;;;;;;;;;;;;;;;-144.99;99.50;52276.88;5003526;28;20239;-69
2022/07/01 11:53:21;;;;;;;;;;;;;;;-144.99;99.49;52223.88;4957892;28;19991;-68
2022/07/01 11:55:48;;;;;;;;;;;;;;;-144.99;98.11;52215.75;4964652;28;19930;-69
2022/07/01 11:58:14;;;;;;;;;;;;;;;-144.99;95.84;52232.03;4965571;28;20353;-68
2022/07/01 12:00:41;;;;;;;;;;;;;;;-144.99;93.42;52236.13;4993351;28;19992;-68
2022/07/01 12:03:08;;;;;;;;;;;;;;;-144.99;93.78;52280.97;4963646;28;19938;-69
2022/07/01 12:05:36;;;;;;;;;;;;;;;-144.99;94.04;52260.56;4959150;28;20029;-69
2022/07/01 12:08:04;;;;;;;;;;;;;;;-144.99;94.02;52260.56;4976941;28;19948;-68
2022/07/01 12:10:31;;;;;;;;;;;;;;;-144.99;93.18;52207.59;4970711;28;19956;-69
2022/07/01 12:12:57;;;;;;;;;;;;;;;-144.99;92.52;52219.81;4974725;28;20003;-68
2022/07/01 12:15:24;;;;;;;;;;;;;;;-144.99;91.02;52260.56;4953514;28;19934;-69
2022/07/01 12:17:51;;;;;;;;;;;;;;;-144.99;89.98;52244.28;4955603;28;20394;-68
2022/07/01 12:20:31;;;;;;;;;;;;;;;-144.99;90.62;52236.13;4971507;28;19930;-69
2022/07/01 12:23:12;;;;;;;;;;;;;;;-144.99;91.26;52272.81;4949748;28;19956;-68
2022/07/01 12:25:39;;;;;;;;;;;;;;;-144.99;90.53;52252.44;4944968;28;19937;-68
2022/07/01 12:28:05;;;;;;;;;;;;;;;-144.99;89.20;52256.50;4958593;28;19949;-69
2022/07/01 12:30:33;;;;;;;;;;;;;;;-144.99;91.64;52254.47;4953990;28;19953;-69
2022/07/01 12:33:08;;;;;;;;;;;;;;;-144.99;90.52;52293.19;4952433;28;19930;-68